Time;durP1;ratioP1;P1;durP2;ratioP2;P2;SDS_P1;SDS_P2;PMS_P1;PMS_P2;Temp;Humidity;BMP_temperature;BMP_pressure;BME280_temperature;BME280_humidity;BME280_pressure;Samples;Min_cycle;Max_cycle;Signal;HPM_P1;HPM_P2
2021/10/10 00:05:10;;;;;;;12.23;11.13;;;6.80;99.90;;;;;;6230099;22;20662;-95
2021/10/10 00:07:41;;;;;;;11.93;10.83;;;6.80;99.90;;;;;;6226427;23;20643;-95
2021/10/10 00:10:22;;;;;;;12.57;11.37;;;6.80;99.90;;;;;;6223631;23;20617;-95
2021/10/10 00:13:08;;;;;;;12.73;11.63;;;6.90;99.90;;;;;;6222178;23;20687;-95
2021/10/10 01:04:09;;;;;;;13.57;12.47;;;6.40;99.90;;;;;;5788198;22;11073290;-95
2021/10/10 01:06:41;;;;;;;13.90;12.80;;;6.30;99.90;;;;;;6255762;23;20523;-95
2021/10/10 01:09:13;;;;;;;14.43;13.03;;;6.30;99.90;;;;;;6254396;23;20577;-94
2021/10/10 01:12:00;;;;;;;13.53;12.43;;;6.20;99.90;;;;;;6254758;23;20631;-94
2021/10/10 01:15:10;;;;;;;14.53;13.23;;;6.20;99.90;;;;;;6254436;23;20616;-95
2021/10/10 01:17:46;;;;;;;14.63;13.23;;;6.20;99.90;;;;;;6253405;23;20625;-95
2021/10/10 01:20:42;;;;;;;18.73;13.63;;;6.10;99.90;;;;;;6254222;23;20585;-95
2021/10/10 01:23:22;;;;;;;15.13;13.63;;;6.20;99.90;;;;;;6254394;23;20581;-95
2021/10/10 01:25:56;;;;;;;14.77;13.50;;;6.20;99.90;;;;;;6254414;23;20585;-95
2021/10/10 01:35:04;;;;;;;14.63;13.13;;;6.10;99.90;;;;;;6239136;22;20581;-95
2021/10/10 01:37:33;;;;;;;13.10;11.80;;;6.10;99.90;;;;;;6246554;23;20984;-95
2021/10/10 01:40:08;;;;;;;13.83;12.33;;;6.00;99.90;;;;;;6247338;23;20581;-96
2021/10/10 01:49:02;;;;;;;15.40;12.70;;;6.10;99.90;;;;;;6246155;22;20606;-95
2021/10/10 01:51:38;;;;;;;13.83;12.57;;;6.00;99.90;;;;;;6246960;23;20653;-93
2021/10/10 02:01:02;;;;;;;14.77;13.30;;;5.80;99.90;;;;;;6216727;23;20595;-95
2021/10/10 02:23:01;;;;;;;14.13;12.63;;;5.60;99.90;;;;;;6187424;22;20654;-94
2021/10/10 02:25:47;;;;;;;14.17;12.97;;;5.50;99.90;;;;;;6247965;22;20900;-94
2021/10/10 02:28:17;;;;;;;14.50;13.07;;;5.50;99.90;;;;;;6247620;22;20609;-94
2021/10/10 02:34:49;;;;;;;14.33;13.03;;;5.60;99.90;;;;;;6117115;22;20717;-94
2021/10/10 02:40:53;;;;;;;14.63;13.33;;;5.40;99.90;;;;;;6120768;23;20586;-95
2021/10/10 02:50:58;;;;;;;17.03;15.60;;;5.50;99.90;;;;;;6182480;23;20572;-94
2021/10/10 03:06:26;;;;;;;18.73;17.03;;;5.50;99.90;;;;;;6090625;23;20714;-93
2021/10/10 03:09:40;;;;;;;19.43;17.63;;;5.60;99.90;;;;;;6149839;23;20607;-94
2021/10/10 03:25:35;;;;;;;19.27;17.37;;;5.50;99.90;;;;;;6078148;23;20664;-93
2021/10/10 03:33:58;;;;;;;19.20;17.40;;;5.50;99.90;;;;;;6118398;23;20588;-94
2021/10/10 03:36:36;;;;;;;21.60;19.50;;;5.50;99.90;;;;;;6116974;23;20586;-93
2021/10/10 03:39:04;;;;;;;20.17;18.47;;;5.50;99.90;;;;;;6172866;23;20781;-93
2021/10/10 03:41:37;;;;;;;22.40;20.43;;;5.50;99.90;;;;;;6218967;23;20616;-91
2021/10/10 03:44:14;;;;;;;19.20;17.50;;;5.50;99.90;;;;;;6218191;23;20586;-92
2021/10/10 03:50:26;;;;;;;23.53;21.33;;;5.50;99.90;;;;;;6075257;23;20583;-93
2021/10/10 03:53:03;;;;;;;20.37;18.47;;;5.50;99.90;;;;;;6149513;23;20606;-95
2021/10/10 03:55:50;;;;;;;21.10;19.30;;;5.40;99.90;;;;;;6233165;23;20593;-94
2021/10/10 03:58:40;;;;;;;21.93;20.07;;;5.50;99.90;;;;;;6237010;22;20637;-94
2021/10/10 04:08:50;;;;;;;19.83;17.97;;;5.40;99.90;;;;;;6127298;23;20609;-94
2021/10/10 04:11:31;;;;;;;14.80;13.40;;;5.40;99.90;;;;;;6215040;23;20584;-93
2021/10/10 04:14:07;;;;;;;15.60;14.13;;;5.20;99.90;;;;;;6208491;23;20594;-93
2021/10/10 09:00:32;;;;;;;17.53;15.87;;;10.60;99.90;;;;;;6202424;22;20641;-94
2021/10/10 09:03:11;;;;;;;17.10;15.57;;;10.80;99.90;;;;;;6212437;23;20976;-95
2021/10/10 09:05:43;;;;;;;17.07;15.30;;;11.30;99.90;;;;;;6218991;23;20581;-95
2021/10/10 09:08:17;;;;;;;15.57;14.03;;;11.50;99.90;;;;;;6214703;23;20693;-94
2021/10/10 09:10:59;;;;;;;16.23;14.70;;;11.90;99.90;;;;;;6214416;23;20633;-94
2021/10/10 09:13:47;;;;;;;16.90;15.10;;;12.10;99.90;;;;;;6215392;23;20575;-94
2021/10/10 09:16:37;;;;;;;14.57;13.20;;;12.40;99.90;;;;;;6213278;23;20598;-93
2021/10/10 09:19:30;;;;;;;15.40;13.90;;;12.30;99.90;;;;;;6203383;23;20648;-93
2021/10/10 09:22:11;;;;;;;17.87;15.17;;;12.80;99.90;;;;;;6210414;23;20602;-93
2021/10/10 09:24:40;;;;;;;15.73;14.27;;;13.00;99.90;;;;;;6207022;23;20898;-93
2021/10/10 09:27:22;;;;;;;14.97;13.57;;;13.30;99.90;;;;;;6211492;23;20570;-92
2021/10/10 09:29:52;;;;;;;14.40;13.00;;;13.50;99.90;;;;;;6214617;23;20609;-93
2021/10/10 09:32:31;;;;;;;15.07;13.43;;;13.60;99.90;;;;;;6211400;23;20582;-93
2021/10/10 09:35:05;;;;;;;15.47;14.00;;;13.70;99.90;;;;;;6210965;23;20571;-94
2021/10/10 09:37:43;;;;;;;17.03;12.77;;;13.80;99.90;;;;;;6189489;23;21030;-93
2021/10/10 09:40:40;;;;;;;14.83;13.23;;;13.90;99.90;;;;;;6210813;23;20605;-94
2021/10/10 09:43:14;;;;;;;13.93;11.40;;;14.10;99.90;;;;;;6212601;23;20583;-94
2021/10/10 09:45:54;;;;;;;15.40;13.80;;;14.30;99.90;;;;;;6214839;23;20574;-94
2021/10/10 09:48:33;;;;;;;15.23;13.80;;;14.30;99.90;;;;;;6212135;23;20701;-94
2021/10/10 09:51:02;;;;;;;13.97;12.30;;;14.60;99.90;;;;;;6212502;23;20571;-93
2021/10/10 09:56:52;;;;;;;13.87;12.50;;;15.00;99.90;;;;;;6205148;23;20661;-93
2021/10/10 09:59:33;;;;;;;13.87;12.47;;;14.50;99.90;;;;;;6212426;23;20629;-93
2021/10/10 10:02:08;;;;;;;14.70;13.10;;;14.90;99.90;;;;;;6211156;23;20590;-93
2021/10/10 10:10:36;;;;;;;15.60;12.87;;;15.20;99.90;;;;;;6209397;23;20583;-94
2021/10/10 10:13:44;;;;;;;13.83;12.40;;;15.50;99.90;;;;;;6211714;23;20642;-94
2021/10/10 10:19:57;;;;;;;17.43;15.67;;;16.10;98.90;;;;;;6208092;22;20638;-93
2021/10/10 10:22:39;;;;;;;18.17;12.73;;;16.10;96.90;;;;;;6211775;23;21012;-94
2021/10/10 10:25:24;;;;;;;13.87;12.43;;;15.80;98.00;;;;;;6212792;23;20613;-93
2021/10/10 10:28:11;;;;;;;14.20;12.50;;;16.10;97.30;;;;;;6214617;23;20618;-94
2021/10/10 10:30:54;;;;;;;14.63;12.23;;;16.30;96.20;;;;;;6211955;23;20609;-94
2021/10/10 10:33:38;;;;;;;14.30;12.80;;;16.30;96.50;;;;;;6212343;23;21080;-94
2021/10/10 10:36:18;;;;;;;14.53;13.13;;;16.40;95.00;;;;;;6208363;23;20579;-93
2021/10/10 10:38:54;;;;;;;14.47;11.10;;;16.70;94.40;;;;;;6208863;23;20734;-94
2021/10/10 10:44:56;;;;;;;14.70;10.03;;;16.70;93.50;;;;;;6085848;23;20585;-94
2021/10/10 10:47:25;;;;;;;13.20;10.63;;;16.80;92.40;;;;;;6089593;23;20633;-94
2021/10/10 10:50:16;;;;;;;14.57;11.67;;;17.00;91.70;;;;;;6204338;23;21130;-94
2021/10/10 10:53:00;;;;;;;11.73;10.50;;;17.30;90.50;;;;;;6212945;23;20709;-94
2021/10/10 10:55:39;;;;;;;13.50;10.87;;;17.70;90.80;;;;;;6210634;23;21052;-94
2021/10/10 11:01:10;;;;;;;14.87;10.07;;;17.30;88.60;;;;;;6164654;23;20908;-92
2021/10/10 11:03:37;;;;;;;15.37;9.93;;;17.60;87.10;;;;;;6209721;23;20570;-92
2021/10/10 11:06:19;;;;;;;11.57;8.77;;;17.50;87.20;;;;;;6208889;23;20578;-93
2021/10/10 11:08:46;;;;;;;12.83;10.60;;;17.70;84.90;;;;;;6206121;23;20640;-92
2021/10/10 11:11:19;;;;;;;11.60;10.50;;;17.90;88.20;;;;;;6208554;23;20562;-93
2021/10/10 11:13:56;;;;;;;11.20;10.20;;;18.20;83.70;;;;;;6227001;23;20574;-91
2021/10/10 11:16:30;;;;;;;12.93;9.40;;;18.20;83.30;;;;;;6217491;23;20590;-92
2021/10/10 11:19:02;;;;;;;10.87;9.83;;;18.00;86.20;;;;;;6213604;23;20594;-92
2021/10/10 11:21:31;;;;;;;11.20;10.10;;;18.00;85.90;;;;;;6210036;23;20945;-92
2021/10/10 11:24:00;;;;;;;11.70;9.63;;;18.40;84.20;;;;;;6209403;23;20578;-92
2021/10/10 11:26:32;;;;;;;12.20;9.47;;;18.90;84.20;;;;;;6209272;23;20552;-91
2021/10/10 11:29:01;;;;;;;9.60;8.60;;;19.10;79.40;;;;;;6208795;23;21237;-91
2021/10/10 11:31:30;;;;;;;11.00;9.27;;;18.70;76.50;;;;;;6211711;23;20687;-94
2021/10/10 11:34:47;;;;;;;10.77;9.10;;;18.90;76.10;;;;;;6212406;23;20583;-94
2021/10/10 11:37:55;;;;;;;;;;;;;;;;;;;;;
2021/10/10 11:41:33;;;;;;;10.50;9.43;;;19.30;76.30;;;;;;6215430;23;20547;-94
2021/10/10 11:51:49;;;;;;;9.67;8.77;;;19.70;71.50;;;;;;5990855;23;20935;-94
2021/10/10 11:55:12;;;;;;;10.27;9.00;;;20.00;70.50;;;;;;6090104;23;20714;-94
2021/10/10 12:04:28;;;;;;;11.10;10.10;;;20.60;73.10;;;;;;6193717;23;20582;-94
2021/10/10 12:20:54;;;;;;;;;;;;;;;;;;;;;
2021/10/10 12:27:52;;;;;;;;;;;;;;;;;;;;;
2021/10/10 13:01:10;;;;;;;11.13;8.20;;;21.60;61.90;;;;;;6001694;23;20569;-93
2021/10/10 13:07:43;;;;;;;;;;;;;;;;;;;;;
2021/10/10 13:11:06;;;;;;;8.70;7.70;;;22.80;61.10;;;;;;6215035;23;20610;-94
2021/10/10 13:13:59;;;;;;;13.40;7.70;;;22.30;62.90;;;;;;6187469;23;20598;-94
2021/10/10 13:23:54;;;;;;;8.03;7.37;;;22.50;58.90;;;;;;6056401;23;20599;-93
2021/10/10 13:29:37;;;;;;;8.30;7.50;;;22.80;58.80;;;;;;6210476;22;20757;-94
2021/10/10 13:32:44;;;;;;;12.73;7.90;;;22.90;59.30;;;;;;6205813;23;20571;-93
2021/10/10 13:42:15;;;;;;;7.10;6.40;;;23.00;55.90;;;;;;6149630;23;21204;-95
2021/10/10 13:45:02;;;;;;;6.77;6.20;;;22.90;55.90;;;;;;6155349;23;20671;-95
2021/10/10 14:07:59;;;;;;;7.13;6.53;;;23.00;51.90;;;;;;6111959;23;20610;-96
2021/10/10 14:10:38;;;;;;;7.40;6.33;;;22.50;54.40;;;;;;6219793;23;20610;-96
2021/10/10 14:13:06;;;;;;;6.97;6.30;;;23.60;53.30;;;;;;6215709;23;20582;-96
2021/10/10 14:15:41;;;;;;;6.77;6.20;;;23.60;53.80;;;;;;6214778;23;20648;-96
2021/10/10 14:18:17;;;;;;;10.10;7.17;;;23.60;55.10;;;;;;6210951;23;20704;-96
2021/10/10 14:20:47;;;;;;;9.00;7.57;;;23.20;53.40;;;;;;6212168;23;20594;-96
2021/10/10 14:52:33;;;;;;;7.80;7.20;;;22.60;54.80;;;;;;6174694;22;20661;-96
2021/10/10 17:24:01;;;;;;;;;;;;;;;;;;;;;
2021/10/10 17:27:06;;;;;;;9.00;8.10;;;9.90;99.90;;;;;;6270798;22;20574;-96
2021/10/10 17:33:10;;;;;;;8.27;7.47;;;9.70;99.90;;;;;;6236855;23;20591;-96
2021/10/10 17:35:52;;;;;;;9.93;8.00;;;9.50;99.90;;;;;;6234428;23;20575;-96
2021/10/10 17:38:31;;;;;;;8.60;7.80;;;9.60;99.90;;;;;;6232562;23;20571;-96
2021/10/10 17:41:18;;;;;;;8.33;7.53;;;9.50;99.90;;;;;;6230182;23;20625;-96
2021/10/10 17:44:02;;;;;;;9.43;8.47;;;9.50;99.90;;;;;;6208850;23;20579;-96
2021/10/10 17:46:59;;;;;;;9.00;8.20;;;9.40;99.90;;;;;;6225112;23;20602;-96
2021/10/10 17:50:07;;;;;;;9.83;8.90;;;9.50;99.90;;;;;;6232604;23;20586;-96
2021/10/10 17:52:58;;;;;;;9.20;8.30;;;9.30;99.90;;;;;;6218080;23;20626;-96
2021/10/10 18:20:03;;;;;;;9.47;8.57;;;9.60;99.90;;;;;;6234593;23;20563;-96
2021/10/10 18:23:10;;;;;;;10.60;9.50;;;9.40;99.90;;;;;;6240047;23;20948;-96
2021/10/10 18:26:00;;;;;;;10.60;9.53;;;9.40;99.90;;;;;;6240756;23;20582;-96
2021/10/10 18:37:14;;;;;;;10.57;9.60;;;9.20;99.90;;;;;;6228166;23;20586;-96
2021/10/10 18:53:31;;;;;;;12.33;11.27;;;8.80;99.90;;;;;;6243096;22;20648;-95
2021/10/10 18:59:46;;;;;;;9.60;8.90;;;8.50;99.90;;;;;;6272400;22;20494;-96
2021/10/10 19:09:18;;;;;;;11.90;11.00;;;8.20;99.90;;;;;;6269857;22;20604;-95
2021/10/10 19:20:35;;;;;;;13.37;12.37;;;7.90;99.90;;;;;;6261935;23;20570;-95
2021/10/10 19:32:17;;;;;;;14.03;12.57;;;7.40;99.90;;;;;;6266319;23;20622;-96
2021/10/10 19:43:14;;;;;;;14.17;12.87;;;7.40;99.90;;;;;;6262618;23;21138;-96
2021/10/10 19:46:00;;;;;;;15.37;14.10;;;7.50;99.90;;;;;;6258165;23;20595;-96
2021/10/10 19:49:16;;;;;;;13.90;12.80;;;7.50;99.90;;;;;;6266315;23;20577;-96
2021/10/10 20:01:02;;;;;;;14.10;13.00;;;7.10;99.90;;;;;;6247953;22;20628;-95
2021/10/10 20:09:47;;;;;;;13.80;12.50;;;7.10;99.90;;;;;;6259603;22;20567;-96
2021/10/10 20:12:17;;;;;;;14.17;12.97;;;6.90;99.90;;;;;;6251579;22;20679;-96
2021/10/10 20:14:44;;;;;;;14.03;12.90;;;6.90;99.90;;;;;;6249423;23;20666;-95
2021/10/10 20:17:16;;;;;;;15.13;13.73;;;6.80;99.90;;;;;;6250970;23;20586;-96
2021/10/10 20:19:45;;;;;;;15.53;14.13;;;6.90;99.90;;;;;;6250243;22;20724;-96
2021/10/10 20:22:19;;;;;;;15.97;14.37;;;6.80;99.90;;;;;;6250810;23;20641;-96
2021/10/10 20:24:58;;;;;;;14.70;13.40;;;6.60;99.90;;;;;;6248555;23;20593;-96
2021/10/10 20:27:26;;;;;;;14.93;13.50;;;6.70;99.90;;;;;;6250469;23;20585;-95
2021/10/10 20:29:56;;;;;;;15.40;14.20;;;6.60;99.90;;;;;;6257094;22;20621;-96
2021/10/10 20:35:16;;;;;;;17.20;15.80;;;6.70;99.90;;;;;;6278018;22;21167;-96
2021/10/10 20:40:40;;;;;;;16.13;14.93;;;6.60;99.90;;;;;;6279178;22;20686;-96
2021/10/10 20:46:44;;;;;;;16.73;15.23;;;6.50;99.90;;;;;;6294059;22;20570;-96
2021/10/10 20:49:17;;;;;;;16.43;14.60;;;6.40;99.90;;;;;;6292017;22;20608;-96
2021/10/10 20:55:09;;;;;;;14.77;13.57;;;6.40;99.90;;;;;;6289039;22;20524;-96
2021/10/10 20:57:39;;;;;;;15.67;14.17;;;6.30;99.90;;;;;;6292095;22;20580;-95
2021/10/10 21:00:35;;;;;;;14.33;13.23;;;6.30;99.90;;;;;;6298816;22;20631;-96
2021/10/10 21:03:17;;;;;;;15.13;13.83;;;6.40;99.90;;;;;;6298814;22;20629;-96
2021/10/10 21:05:53;;;;;;;15.23;13.93;;;6.30;99.90;;;;;;6288284;22;20614;-96
2021/10/10 21:09:04;;;;;;;16.63;15.00;;;6.30;99.90;;;;;;6287464;22;20594;-96
2021/10/10 21:11:42;;;;;;;16.27;14.70;;;6.20;99.90;;;;;;6302711;22;20611;-96
2021/10/10 21:14:33;;;;;;;16.60;15.20;;;6.10;99.90;;;;;;6306297;22;20576;-96
2021/10/10 21:17:04;;;;;;;16.00;14.70;;;6.10;99.90;;;;;;6279585;22;20659;-95
2021/10/10 21:19:37;;;;;;;15.23;14.03;;;6.20;99.90;;;;;;6294076;22;20579;-96
2021/10/10 21:22:07;;;;;;;16.53;15.33;;;6.20;99.90;;;;;;6285270;22;20576;-96
2021/10/10 21:24:36;;;;;;;15.47;14.27;;;6.20;99.90;;;;;;6285167;22;20581;-96
2021/10/10 21:27:15;;;;;;;17.17;15.60;;;6.10;99.90;;;;;;6284322;22;20590;-96
2021/10/10 21:29:55;;;;;;;15.57;14.33;;;6.10;99.90;;;;;;6288108;22;20621;-96
2021/10/10 21:32:40;;;;;;;16.27;14.87;;;6.10;99.90;;;;;;6289547;22;20624;-96
2021/10/10 21:35:30;;;;;;;16.70;15.20;;;6.10;99.90;;;;;;6290841;22;20577;-96
2021/10/10 21:38:16;;;;;;;15.97;14.53;;;6.00;99.90;;;;;;6263035;22;20896;-96
2021/10/10 21:40:49;;;;;;;15.67;14.27;;;5.90;99.90;;;;;;6288924;22;20674;-96
2021/10/10 21:43:19;;;;;;;15.60;14.40;;;5.90;99.90;;;;;;6288847;22;20612;-96
2021/10/10 21:45:51;;;;;;;17.00;15.40;;;5.90;99.90;;;;;;6262343;22;20608;-96
2021/10/10 21:51:04;;;;;;;16.10;14.80;;;5.70;99.90;;;;;;6289920;22;20623;-96
2021/10/10 21:53:41;;;;;;;16.07;14.77;;;5.80;99.90;;;;;;6281793;22;20611;-96
2021/10/10 21:56:15;;;;;;;17.27;15.77;;;5.80;99.90;;;;;;6291747;22;20597;-96
2021/10/10 22:24:00;;;;;;;15.93;14.63;;;5.60;99.90;;;;;;6280565;22;20599;-95
2021/10/10 22:26:36;;;;;;;16.70;15.23;;;5.60;99.90;;;;;;6278749;22;20572;-95
2021/10/10 22:31:52;;;;;;;17.60;16.10;;;5.50;99.90;;;;;;6278053;22;20567;-94
2021/10/10 22:34:19;;;;;;;18.10;16.50;;;5.50;99.90;;;;;;6276669;22;20585;-95
2021/10/10 22:36:46;;;;;;;18.07;16.67;;;5.40;99.90;;;;;;6279534;22;20601;-95
2021/10/10 22:39:22;;;;;;;19.07;17.37;;;5.40;99.90;;;;;;6288868;22;21089;-96
2021/10/10 22:41:49;;;;;;;18.20;16.70;;;5.50;99.90;;;;;;6288536;22;20630;-96
2021/10/10 22:44:17;;;;;;;17.97;16.47;;;5.40;99.90;;;;;;6289999;22;20596;-95
2021/10/10 22:46:45;;;;;;;18.93;17.43;;;5.40;99.90;;;;;;6289391;22;20583;-95
2021/10/10 22:49:12;;;;;;;17.87;16.27;;;5.30;99.90;;;;;;6286019;22;20581;-96
2021/10/10 22:51:43;;;;;;;18.37;16.87;;;5.30;99.90;;;;;;6290582;22;20685;-96
2021/10/10 22:54:14;;;;;;;18.50;16.97;;;5.30;99.90;;;;;;6292090;22;20604;-96
2021/10/10 23:02:31;;;;;;;17.50;16.10;;;5.40;99.90;;;;;;6294781;22;20569;-96
2021/10/10 23:08:25;;;;;;;19.57;17.63;;;5.20;99.90;;;;;;6292289;22;20496;-96
2021/10/10 23:11:18;;;;;;;18.57;16.87;;;5.10;99.90;;;;;;6289392;22;20692;-95
2021/10/10 23:16:33;;;;;;;18.57;16.70;;;5.10;99.90;;;;;;6303234;22;20577;-96
2021/10/10 23:19:01;;;;;;;17.63;15.93;;;5.10;99.90;;;;;;6303324;22;20577;-96
2021/10/10 23:21:30;;;;;;;18.20;16.80;;;5.10;99.90;;;;;;6289986;22;20600;-96
2021/10/10 23:26:40;;;;;;;18.33;17.00;;;5.10;99.90;;;;;;6286005;22;21118;-95
2021/10/10 23:29:46;;;;;;;19.10;17.70;;;5.00;99.90;;;;;;6289721;22;20599;-96
2021/10/10 23:32:35;;;;;;;17.77;16.00;;;5.00;99.90;;;;;;6289187;22;20648;-96
2021/10/10 23:35:05;;;;;;;17.57;16.13;;;5.00;99.90;;;;;;6288730;22;20606;-96
2021/10/10 23:40:19;;;;;;;18.40;16.90;;;4.80;99.90;;;;;;6289530;22;20680;-96
